sensor_id;sensor_type;location;lat;lon;timestamp;P1;durP1;ratioP1;P2;durP2;ratioP2
36457;SDS011;22480;50.546;12.292;2023-03-23T00:01:24;1.30;;;0.85;;
36457;SDS011;22480;50.546;12.292;2023-03-23T00:03:52;1.60;;;0.80;;
36457;SDS011;22480;50.546;12.292;2023-03-23T00:08:49;0.90;;;0.60;;
36457;SDS011;22480;50.546;12.292;2023-03-23T00:11:21;1.70;;;0.65;;
36457;SDS011;22480;50.546;12.292;2023-03-23T00:13:51;1.17;;;0.80;;
36457;SDS011;22480;50.546;12.292;2023-03-23T00:16:21;0.85;;;0.50;;
36457;SDS011;22480;50.546;12.292;2023-03-23T00:18:54;0.90;;;0.60;;
36457;SDS011;22480;50.546;12.292;2023-03-23T00:21:24;1.15;;;0.85;;
36457;SDS011;22480;50.546;12.292;2023-03-23T00:26:29;1.25;;;0.70;;
36457;SDS011;22480;50.546;12.292;2023-03-23T00:28:59;1.85;;;0.55;;
36457;SDS011;22480;50.546;12.292;2023-03-23T00:31:26;1.27;;;0.50;;
36457;SDS011;22480;50.546;12.292;2023-03-23T00:33:57;2.65;;;0.80;;
36457;SDS011;22480;50.546;12.292;2023-03-23T00:36:26;2.15;;;0.70;;
36457;SDS011;22480;50.546;12.292;2023-03-23T00:38:53;2.95;;;1.38;;
36457;SDS011;22480;50.546;12.292;2023-03-23T00:41:19;0.60;;;0.40;;
36457;SDS011;22480;50.546;12.292;2023-03-23T00:43:47;0.57;;;0.55;;
36457;SDS011;22480;50.546;12.292;2023-03-23T00:46:13;0.50;;;0.50;;
36457;SDS011;22480;50.546;12.292;2023-03-23T00:48:39;0.55;;;0.50;;
36457;SDS011;22480;50.546;12.292;2023-03-23T00:51:09;1.08;;;0.80;;
36457;SDS011;22480;50.546;12.292;2023-03-23T00:53:35;1.15;;;0.60;;
36457;SDS011;22480;50.546;12.292;2023-03-23T00:56:02;1.40;;;0.55;;
36457;SDS011;22480;50.546;12.292;2023-03-23T00:58:28;1.10;;;0.80;;
36457;SDS011;22480;50.546;12.292;2023-03-23T01:00:53;1.27;;;0.65;;
36457;SDS011;22480;50.546;12.292;2023-03-23T01:03:19;1.83;;;0.75;;
36457;SDS011;22480;50.546;12.292;2023-03-23T01:05:45;1.65;;;0.82;;
36457;SDS011;22480;50.546;12.292;2023-03-23T01:08:17;1.95;;;0.93;;
36457;SDS011;22480;50.546;12.292;2023-03-23T01:10:44;0.98;;;0.50;;
36457;SDS011;22480;50.546;12.292;2023-03-23T01:13:10;0.85;;;0.80;;
36457;SDS011;22480;50.546;12.292;2023-03-23T01:15:37;2.22;;;0.68;;
36457;SDS011;22480;50.546;12.292;2023-03-23T01:18:03;0.98;;;0.75;;
36457;SDS011;22480;50.546;12.292;2023-03-23T01:20:29;1.60;;;0.75;;
36457;SDS011;22480;50.546;12.292;2023-03-23T01:22:57;1.38;;;0.60;;
36457;SDS011;22480;50.546;12.292;2023-03-23T01:25:25;1.92;;;0.75;;
36457;SDS011;22480;50.546;12.292;2023-03-23T01:27:52;4.03;;;0.98;;
36457;SDS011;22480;50.546;12.292;2023-03-23T01:30:17;1.05;;;0.60;;
36457;SDS011;22480;50.546;12.292;2023-03-23T01:32:43;1.27;;;0.70;;
36457;SDS011;22480;50.546;12.292;2023-03-23T01:35:09;0.73;;;0.60;;
36457;SDS011;22480;50.546;12.292;2023-03-23T01:37:37;0.82;;;0.70;;
36457;SDS011;22480;50.546;12.292;2023-03-23T01:40:03;1.48;;;0.88;;
36457;SDS011;22480;50.546;12.292;2023-03-23T01:42:31;1.00;;;0.65;;
36457;SDS011;22480;50.546;12.292;2023-03-23T01:47:49;1.48;;;0.70;;
36457;SDS011;22480;50.546;12.292;2023-03-23T01:50:26;0.93;;;0.47;;
36457;SDS011;22480;50.546;12.292;2023-03-23T01:52:55;2.28;;;0.70;;
36457;SDS011;22480;50.546;12.292;2023-03-23T01:55:24;1.20;;;0.90;;
36457;SDS011;22480;50.546;12.292;2023-03-23T01:57:52;1.13;;;0.60;;
36457;SDS011;22480;50.546;12.292;2023-03-23T02:00:20;5.10;;;0.93;;
36457;SDS011;22480;50.546;12.292;2023-03-23T02:02:51;1.88;;;0.80;;
36457;SDS011;22480;50.546;12.292;2023-03-23T02:05:28;1.27;;;0.63;;
36457;SDS011;22480;50.546;12.292;2023-03-23T02:08:03;1.67;;;0.80;;
36457;SDS011;22480;50.546;12.292;2023-03-23T02:10:33;1.25;;;0.52;;
36457;SDS011;22480;50.546;12.292;2023-03-23T02:13:00;0.63;;;0.60;;
36457;SDS011;22480;50.546;12.292;2023-03-23T02:15:40;2.15;;;0.60;;
36457;SDS011;22480;50.546;12.292;2023-03-23T02:26:47;0.70;;;0.60;;
36457;SDS011;22480;50.546;12.292;2023-03-23T02:28:54;2.83;;;0.95;;
36457;SDS011;22480;50.546;12.292;2023-03-23T02:34:40;2.10;;;0.60;;
36457;SDS011;22480;50.546;12.292;2023-03-23T02:37:11;3.33;;;0.60;;
36457;SDS011;22480;50.546;12.292;2023-03-23T02:39:45;1.05;;;0.63;;
36457;SDS011;22480;50.546;12.292;2023-03-23T02:42:20;1.27;;;0.82;;
36457;SDS011;22480;50.546;12.292;2023-03-23T02:44:51;1.33;;;0.90;;
36457;SDS011;22480;50.546;12.292;2023-03-23T02:47:25;2.55;;;0.80;;
36457;SDS011;22480;50.546;12.292;2023-03-23T02:49:53;1.17;;;0.73;;
36457;SDS011;22480;50.546;12.292;2023-03-23T02:52:22;1.40;;;0.82;;
36457;SDS011;22480;50.546;12.292;2023-03-23T02:54:51;1.27;;;0.80;;
36457;SDS011;22480;50.546;12.292;2023-03-23T02:57:19;4.32;;;0.80;;
36457;SDS011;22480;50.546;12.292;2023-03-23T02:59:47;2.83;;;0.98;;
36457;SDS011;22480;50.546;12.292;2023-03-23T03:02:23;3.78;;;1.05;;
36457;SDS011;22480;50.546;12.292;2023-03-23T03:07:27;2.58;;;1.08;;
36457;SDS011;22480;50.546;12.292;2023-03-23T03:10:06;1.58;;;1.38;;
36457;SDS011;22480;50.546;12.292;2023-03-23T03:13:01;1.50;;;1.00;;
36457;SDS011;22480;50.546;12.292;2023-03-23T03:18:26;3.05;;;1.00;;
36457;SDS011;22480;50.546;12.292;2023-03-23T03:21:01;1.02;;;0.93;;
36457;SDS011;22480;50.546;12.292;2023-03-23T03:23:32;2.60;;;1.15;;
36457;SDS011;22480;50.546;12.292;2023-03-23T03:26:02;1.50;;;0.97;;
36457;SDS011;22480;50.546;12.292;2023-03-23T03:28:41;1.73;;;1.10;;
36457;SDS011;22480;50.546;12.292;2023-03-23T03:31:09;2.03;;;1.17;;
36457;SDS011;22480;50.546;12.292;2023-03-23T03:33:36;0.93;;;0.85;;
36457;SDS011;22480;50.546;12.292;2023-03-23T03:36:03;1.70;;;0.90;;
36457;SDS011;22480;50.546;12.292;2023-03-23T03:38:43;1.63;;;1.00;;
36457;SDS011;22480;50.546;12.292;2023-03-23T03:41:12;2.55;;;0.90;;
36457;SDS011;22480;50.546;12.292;2023-03-23T03:43:38;1.23;;;0.90;;
36457;SDS011;22480;50.546;12.292;2023-03-23T03:46:04;1.52;;;0.95;;
36457;SDS011;22480;50.546;12.292;2023-03-23T03:48:31;2.83;;;1.13;;
36457;SDS011;22480;50.546;12.292;2023-03-23T03:50:57;5.90;;;1.10;;
36457;SDS011;22480;50.546;12.292;2023-03-23T03:53:27;2.22;;;1.25;;
36457;SDS011;22480;50.546;12.292;2023-03-23T03:55:53;2.63;;;1.08;;
36457;SDS011;22480;50.546;12.292;2023-03-23T03:58:25;2.65;;;1.08;;
36457;SDS011;22480;50.546;12.292;2023-03-23T04:01:35;1.88;;;0.95;;
36457;SDS011;22480;50.546;12.292;2023-03-23T04:04:02;1.95;;;1.10;;
36457;SDS011;22480;50.546;12.292;2023-03-23T04:06:33;1.60;;;0.77;;
36457;SDS011;22480;50.546;12.292;2023-03-23T04:09:02;1.10;;;1.00;;
36457;SDS011;22480;50.546;12.292;2023-03-23T04:11:32;1.95;;;0.85;;
36457;SDS011;22480;50.546;12.292;2023-03-23T04:14:17;2.15;;;1.00;;
36457;SDS011;22480;50.546;12.292;2023-03-23T04:16:44;1.55;;;1.05;;
36457;SDS011;22480;50.546;12.292;2023-03-23T04:19:10;1.33;;;1.02;;
36457;SDS011;22480;50.546;12.292;2023-03-23T04:21:37;1.05;;;0.73;;
36457;SDS011;22480;50.546;12.292;2023-03-23T04:24:04;2.72;;;1.00;;
36457;SDS011;22480;50.546;12.292;2023-03-23T04:26:30;1.67;;;0.90;;
36457;SDS011;22480;50.546;12.292;2023-03-23T04:29:03;1.17;;;0.80;;
36457;SDS011;22480;50.546;12.292;2023-03-23T04:31:49;1.27;;;0.93;;
36457;SDS011;22480;50.546;12.292;2023-03-23T04:34:27;2.05;;;1.00;;
36457;SDS011;22480;50.546;12.292;2023-03-23T04:36:53;1.13;;;1.02;;
36457;SDS011;22480;50.546;12.292;2023-03-23T04:39:25;1.40;;;1.10;;
36457;SDS011;22480;50.546;12.292;2023-03-23T04:41:54;1.70;;;1.17;;
36457;SDS011;22480;50.546;12.292;2023-03-23T04:44:42;1.98;;;0.80;;
36457;SDS011;22480;50.546;12.292;2023-03-23T04:47:18;1.48;;;0.90;;
36457;SDS011;22480;50.546;12.292;2023-03-23T04:49:52;1.75;;;1.00;;
36457;SDS011;22480;50.546;12.292;2023-03-23T04:52:25;1.15;;;0.90;;
36457;SDS011;22480;50.546;12.292;2023-03-23T04:54:55;2.75;;;0.95;;
36457;SDS011;22480;50.546;12.292;2023-03-23T04:57:21;1.65;;;0.88;;
36457;SDS011;22480;50.546;12.292;2023-03-23T05:00:08;1.30;;;1.02;;
36457;SDS011;22480;50.546;12.292;2023-03-23T05:02:40;1.60;;;1.10;;
36457;SDS011;22480;50.546;12.292;2023-03-23T05:05:07;3.25;;;1.15;;
36457;SDS011;22480;50.546;12.292;2023-03-23T05:07:36;3.75;;;1.20;;
36457;SDS011;22480;50.546;12.292;2023-03-23T05:10:03;1.85;;;1.08;;
36457;SDS011;22480;50.546;12.292;2023-03-23T05:12:30;1.60;;;0.80;;
36457;SDS011;22480;50.546;12.292;2023-03-23T05:14:59;1.85;;;0.80;;
36457;SDS011;22480;50.546;12.292;2023-03-23T05:17:27;3.47;;;1.40;;
36457;SDS011;22480;50.546;12.292;2023-03-23T05:19:56;1.27;;;0.93;;
36457;SDS011;22480;50.546;12.292;2023-03-23T05:22:40;2.83;;;0.90;;
36457;SDS011;22480;50.546;12.292;2023-03-23T05:25:07;1.42;;;0.98;;
36457;SDS011;22480;50.546;12.292;2023-03-23T05:27:38;1.52;;;0.80;;
36457;SDS011;22480;50.546;12.292;2023-03-23T05:30:17;1.27;;;1.00;;
36457;SDS011;22480;50.546;12.292;2023-03-23T05:32:43;1.30;;;1.13;;
36457;SDS011;22480;50.546;12.292;2023-03-23T05:35:32;1.52;;;0.70;;
36457;SDS011;22480;50.546;12.292;2023-03-23T05:37:59;1.58;;;1.20;;
36457;SDS011;22480;50.546;12.292;2023-03-23T05:40:27;2.08;;;1.55;;
36457;SDS011;22480;50.546;12.292;2023-03-23T05:42:57;1.58;;;0.85;;
36457;SDS011;22480;50.546;12.292;2023-03-23T05:45:44;1.20;;;0.85;;
36457;SDS011;22480;50.546;12.292;2023-03-23T05:48:10;1.65;;;1.00;;
36457;SDS011;22480;50.546;12.292;2023-03-23T05:50:36;1.20;;;0.93;;
36457;SDS011;22480;50.546;12.292;2023-03-23T05:53:03;2.00;;;1.20;;
36457;SDS011;22480;50.546;12.292;2023-03-23T05:55:31;2.13;;;0.90;;
36457;SDS011;22480;50.546;12.292;2023-03-23T05:58:12;2.05;;;1.00;;
36457;SDS011;22480;50.546;12.292;2023-03-23T06:00:41;1.70;;;1.00;;
36457;SDS011;22480;50.546;12.292;2023-03-23T06:03:17;1.60;;;1.00;;
36457;SDS011;22480;50.546;12.292;2023-03-23T06:05:52;1.33;;;0.95;;
36457;SDS011;22480;50.546;12.292;2023-03-23T06:08:20;3.20;;;1.02;;
36457;SDS011;22480;50.546;12.292;2023-03-23T06:10:47;1.20;;;0.75;;
36457;SDS011;22480;50.546;12.292;2023-03-23T06:13:14;1.33;;;1.02;;
36457;SDS011;22480;50.546;12.292;2023-03-23T06:15:54;2.20;;;1.20;;
36457;SDS011;22480;50.546;12.292;2023-03-23T06:18:41;1.10;;;0.70;;
36457;SDS011;22480;50.546;12.292;2023-03-23T06:21:13;1.52;;;1.17;;
36457;SDS011;22480;50.546;12.292;2023-03-23T06:23:52;1.88;;;0.98;;
36457;SDS011;22480;50.546;12.292;2023-03-23T06:26:19;1.70;;;1.20;;
36457;SDS011;22480;50.546;12.292;2023-03-23T06:28:52;1.38;;;1.15;;
36457;SDS011;22480;50.546;12.292;2023-03-23T06:31:17;1.10;;;1.00;;
36457;SDS011;22480;50.546;12.292;2023-03-23T06:33:46;2.75;;;1.00;;
36457;SDS011;22480;50.546;12.292;2023-03-23T06:36:24;2.13;;;1.38;;
36457;SDS011;22480;50.546;12.292;2023-03-23T06:39:24;2.83;;;1.03;;
36457;SDS011;22480;50.546;12.292;2023-03-23T06:41:57;2.10;;;1.10;;
36457;SDS011;22480;50.546;12.292;2023-03-23T06:44:29;2.72;;;1.08;;
36457;SDS011;22480;50.546;12.292;2023-03-23T06:46:55;2.47;;;1.20;;
36457;SDS011;22480;50.546;12.292;2023-03-23T06:49:26;2.80;;;1.23;;
36457;SDS011;22480;50.546;12.292;2023-03-23T06:52:00;3.22;;;0.93;;
36457;SDS011;22480;50.546;12.292;2023-03-23T06:54:27;1.20;;;1.00;;
36457;SDS011;22480;50.546;12.292;2023-03-23T06:56:53;1.15;;;0.93;;
36457;SDS011;22480;50.546;12.292;2023-03-23T06:59:19;1.20;;;1.00;;
36457;SDS011;22480;50.546;12.292;2023-03-23T07:01:45;2.05;;;1.20;;
36457;SDS011;22480;50.546;12.292;2023-03-23T07:04:12;2.03;;;1.70;;
36457;SDS011;22480;50.546;12.292;2023-03-23T07:06:48;2.88;;;1.33;;
36457;SDS011;22480;50.546;12.292;2023-03-23T07:09:14;3.45;;;1.50;;
36457;SDS011;22480;50.546;12.292;2023-03-23T07:11:40;6.30;;;2.25;;
36457;SDS011;22480;50.546;12.292;2023-03-23T07:14:14;4.15;;;1.45;;
36457;SDS011;22480;50.546;12.292;2023-03-23T07:16:41;1.45;;;1.27;;
36457;SDS011;22480;50.546;12.292;2023-03-23T07:19:07;2.90;;;1.90;;
36457;SDS011;22480;50.546;12.292;2023-03-23T07:21:33;2.70;;;1.50;;
36457;SDS011;22480;50.546;12.292;2023-03-23T07:23:59;3.35;;;1.30;;
36457;SDS011;22480;50.546;12.292;2023-03-23T07:26:57;1.48;;;1.02;;
36457;SDS011;22480;50.546;12.292;2023-03-23T07:29:23;2.35;;;1.08;;
36457;SDS011;22480;50.546;12.292;2023-03-23T07:31:57;1.40;;;1.05;;
36457;SDS011;22480;50.546;12.292;2023-03-23T07:34:23;1.52;;;1.10;;
36457;SDS011;22480;50.546;12.292;2023-03-23T07:37:10;1.17;;;1.08;;
36457;SDS011;22480;50.546;12.292;2023-03-23T07:39:38;2.17;;;1.10;;
36457;SDS011;22480;50.546;12.292;2023-03-23T07:42:05;1.38;;;1.15;;
36457;SDS011;22480;50.546;12.292;2023-03-23T07:44:55;1.95;;;0.98;;
36457;SDS011;22480;50.546;12.292;2023-03-23T07:47:21;6.97;;;1.30;;
36457;SDS011;22480;50.546;12.292;2023-03-23T07:49:48;4.90;;;1.05;;
36457;SDS011;22480;50.546;12.292;2023-03-23T07:52:20;1.42;;;1.10;;
36457;SDS011;22480;50.546;12.292;2023-03-23T07:54:46;1.65;;;1.15;;
36457;SDS011;22480;50.546;12.292;2023-03-23T07:57:38;2.83;;;1.40;;
36457;SDS011;22480;50.546;12.292;2023-03-23T08:00:04;1.42;;;1.05;;
36457;SDS011;22480;50.546;12.292;2023-03-23T08:02:40;5.80;;;1.60;;
36457;SDS011;22480;50.546;12.292;2023-03-23T08:05:29;1.77;;;1.30;;
36457;SDS011;22480;50.546;12.292;2023-03-23T08:08:32;3.33;;;1.30;;
36457;SDS011;22480;50.546;12.292;2023-03-23T08:11:27;6.18;;;3.72;;
36457;SDS011;22480;50.546;12.292;2023-03-23T08:14:12;2.75;;;2.17;;
36457;SDS011;22480;50.546;12.292;2023-03-23T08:17:03;5.10;;;1.60;;
36457;SDS011;22480;50.546;12.292;2023-03-23T08:20:02;1.75;;;1.40;;
36457;SDS011;22480;50.546;12.292;2023-03-23T08:22:58;2.08;;;1.42;;
36457;SDS011;22480;50.546;12.292;2023-03-23T08:25:43;2.65;;;1.48;;
36457;SDS011;22480;50.546;12.292;2023-03-23T08:28:17;2.15;;;1.33;;
36457;SDS011;22480;50.546;12.292;2023-03-23T08:31:10;1.73;;;1.13;;
36457;SDS011;22480;50.546;12.292;2023-03-23T08:33:52;1.58;;;1.30;;
36457;SDS011;22480;50.546;12.292;2023-03-23T08:36:24;1.55;;;1.20;;
36457;SDS011;22480;50.546;12.292;2023-03-23T08:39:13;1.52;;;1.17;;
36457;SDS011;22480;50.546;12.292;2023-03-23T08:42:12;2.38;;;1.02;;
36457;SDS011;22480;50.546;12.292;2023-03-23T08:44:51;2.60;;;1.20;;
36457;SDS011;22480;50.546;12.292;2023-03-23T08:47:37;2.30;;;1.30;;
36457;SDS011;22480;50.546;12.292;2023-03-23T08:50:16;1.77;;;1.42;;
36457;SDS011;22480;50.546;12.292;2023-03-23T08:53:10;3.55;;;2.05;;
36457;SDS011;22480;50.546;12.292;2023-03-23T08:55:54;4.05;;;1.65;;
36457;SDS011;22480;50.546;12.292;2023-03-23T08:58:21;1.55;;;1.30;;
36457;SDS011;22480;50.546;12.292;2023-03-23T09:01:10;2.35;;;1.30;;
36457;SDS011;22480;50.546;12.292;2023-03-23T09:03:42;3.78;;;1.80;;
36457;SDS011;22480;50.546;12.292;2023-03-23T09:06:20;2.55;;;1.42;;
36457;SDS011;22480;50.546;12.292;2023-03-23T09:08:45;7.82;;;2.50;;
36457;SDS011;22480;50.546;12.292;2023-03-23T09:11:11;5.05;;;2.33;;
36457;SDS011;22480;50.546;12.292;2023-03-23T09:13:37;4.57;;;1.95;;
36457;SDS011;22480;50.546;12.292;2023-03-23T09:16:05;3.03;;;1.80;;
36457;SDS011;22480;50.546;12.292;2023-03-23T09:18:31;3.00;;;2.17;;
36457;SDS011;22480;50.546;12.292;2023-03-23T09:21:00;5.35;;;2.72;;
36457;SDS011;22480;50.546;12.292;2023-03-23T09:23:28;5.53;;;2.00;;
36457;SDS011;22480;50.546;12.292;2023-03-23T09:25:54;3.97;;;1.80;;
36457;SDS011;22480;50.546;12.292;2023-03-23T09:28:20;5.22;;;2.60;;
36457;SDS011;22480;50.546;12.292;2023-03-23T09:30:45;4.00;;;1.70;;
36457;SDS011;22480;50.546;12.292;2023-03-23T09:33:12;1.73;;;1.42;;
36457;SDS011;22480;50.546;12.292;2023-03-23T09:35:38;5.75;;;1.92;;
36457;SDS011;22480;50.546;12.292;2023-03-23T09:38:07;3.08;;;1.80;;
36457;SDS011;22480;50.546;12.292;2023-03-23T09:40:47;4.57;;;2.10;;
36457;SDS011;22480;50.546;12.292;2023-03-23T09:51:56;2.33;;;1.70;;
36457;SDS011;22480;50.546;12.292;2023-03-23T09:54:35;1.98;;;1.70;;
36457;SDS011;22480;50.546;12.292;2023-03-23T09:57:04;4.55;;;1.60;;
36457;SDS011;22480;50.546;12.292;2023-03-23T10:05:41;1.80;;;1.50;;
36457;SDS011;22480;50.546;12.292;2023-03-23T10:08:18;2.03;;;1.45;;
36457;SDS011;22480;50.546;12.292;2023-03-23T10:13:30;3.05;;;1.80;;
36457;SDS011;22480;50.546;12.292;2023-03-23T10:15:57;3.78;;;2.08;;
36457;SDS011;22480;50.546;12.292;2023-03-23T10:19:08;3.78;;;1.85;;
36457;SDS011;22480;50.546;12.292;2023-03-23T10:21:34;2.67;;;1.58;;
36457;SDS011;22480;50.546;12.292;2023-03-23T10:24:05;2.63;;;1.15;;
36457;SDS011;22480;50.546;12.292;2023-03-23T10:26:44;2.20;;;1.33;;
36457;SDS011;22480;50.546;12.292;2023-03-23T10:29:31;3.58;;;1.50;;
36457;SDS011;22480;50.546;12.292;2023-03-23T10:34:35;3.90;;;1.88;;
36457;SDS011;22480;50.546;12.292;2023-03-23T10:37:12;1.70;;;1.60;;
36457;SDS011;22480;50.546;12.292;2023-03-23T10:40:03;2.67;;;1.63;;
36457;SDS011;22480;50.546;12.292;2023-03-23T10:42:35;2.60;;;1.88;;
36457;SDS011;22480;50.546;12.292;2023-03-23T10:50:37;3.88;;;1.90;;
36457;SDS011;22480;50.546;12.292;2023-03-23T10:53:20;3.55;;;1.70;;
36457;SDS011;22480;50.546;12.292;2023-03-23T10:55:48;3.17;;;1.63;;
36457;SDS011;22480;50.546;12.292;2023-03-23T10:58:25;2.40;;;1.83;;
36457;SDS011;22480;50.546;12.292;2023-03-23T11:00:54;3.70;;;1.83;;
36457;SDS011;22480;50.546;12.292;2023-03-23T11:03:25;2.97;;;1.92;;
36457;SDS011;22480;50.546;12.292;2023-03-23T11:06:20;3.05;;;1.92;;
36457;SDS011;22480;50.546;12.292;2023-03-23T11:08:55;3.20;;;1.90;;
36457;SDS011;22480;50.546;12.292;2023-03-23T11:11:37;2.00;;;1.80;;
36457;SDS011;22480;50.546;12.292;2023-03-23T11:16:51;2.50;;;1.58;;
36457;SDS011;22480;50.546;12.292;2023-03-23T11:22:13;2.90;;;1.95;;
36457;SDS011;22480;50.546;12.292;2023-03-23T11:24:45;3.40;;;2.00;;
36457;SDS011;22480;50.546;12.292;2023-03-23T11:27:13;2.45;;;1.70;;
36457;SDS011;22480;50.546;12.292;2023-03-23T11:29:48;2.13;;;1.75;;
36457;SDS011;22480;50.546;12.292;2023-03-23T11:35:14;2.28;;;1.80;;
36457;SDS011;22480;50.546;12.292;2023-03-23T11:37:45;3.08;;;1.63;;
36457;SDS011;22480;50.546;12.292;2023-03-23T11:42:45;3.60;;;1.58;;
36457;SDS011;22480;50.546;12.292;2023-03-23T11:45:18;2.30;;;1.92;;
36457;SDS011;22480;50.546;12.292;2023-03-23T11:56:35;4.45;;;1.63;;
36457;SDS011;22480;50.546;12.292;2023-03-23T11:59:05;2.63;;;1.70;;
36457;SDS011;22480;50.546;12.292;2023-03-23T12:07:21;2.60;;;1.60;;
36457;SDS011;22480;50.546;12.292;2023-03-23T12:24:00;1.67;;;1.40;;
36457;SDS011;22480;50.546;12.292;2023-03-23T12:26:38;3.78;;;1.33;;
36457;SDS011;22480;50.546;12.292;2023-03-23T12:31:57;2.70;;;1.50;;
36457;SDS011;22480;50.546;12.292;2023-03-23T12:40:22;2.42;;;1.83;;
36457;SDS011;22480;50.546;12.292;2023-03-23T12:42:59;3.35;;;1.90;;
36457;SDS011;22480;50.546;12.292;2023-03-23T12:48:10;2.70;;;1.85;;
36457;SDS011;22480;50.546;12.292;2023-03-23T12:50:40;3.08;;;1.77;;
36457;SDS011;22480;50.546;12.292;2023-03-23T12:53:25;3.65;;;2.20;;
36457;SDS011;22480;50.546;12.292;2023-03-23T12:59:03;4.25;;;2.97;;
36457;SDS011;22480;50.546;12.292;2023-03-23T13:01:33;2.67;;;2.05;;
36457;SDS011;22480;50.546;12.292;2023-03-23T13:04:08;2.88;;;1.70;;
36457;SDS011;22480;50.546;12.292;2023-03-23T13:06:42;2.03;;;1.33;;
36457;SDS011;22480;50.546;12.292;2023-03-23T13:09:11;1.75;;;1.58;;
36457;SDS011;22480;50.546;12.292;2023-03-23T13:11:52;2.17;;;1.52;;
36457;SDS011;22480;50.546;12.292;2023-03-23T13:14:29;3.17;;;1.63;;
36457;SDS011;22480;50.546;12.292;2023-03-23T13:19:51;1.52;;;1.20;;
36457;SDS011;22480;50.546;12.292;2023-03-23T13:22:27;1.95;;;0.98;;
36457;SDS011;22480;50.546;12.292;2023-03-23T13:25:13;1.77;;;0.98;;
36457;SDS011;22480;50.546;12.292;2023-03-23T13:27:44;3.92;;;1.50;;
36457;SDS011;22480;50.546;12.292;2023-03-23T13:30:21;2.45;;;1.20;;
36457;SDS011;22480;50.546;12.292;2023-03-23T13:32:50;1.38;;;0.95;;
36457;SDS011;22480;50.546;12.292;2023-03-23T13:35:18;3.42;;;1.20;;
36457;SDS011;22480;50.546;12.292;2023-03-23T13:37:47;3.08;;;1.00;;
36457;SDS011;22480;50.546;12.292;2023-03-23T13:40:24;1.52;;;0.80;;
36457;SDS011;22480;50.546;12.292;2023-03-23T13:42:56;0.70;;;0.70;;
36457;SDS011;22480;50.546;12.292;2023-03-23T13:51:23;0.90;;;0.70;;
36457;SDS011;22480;50.546;12.292;2023-03-23T13:53:45;2.00;;;0.95;;
36457;SDS011;22480;50.546;12.292;2023-03-23T13:56:20;1.08;;;0.90;;
36457;SDS011;22480;50.546;12.292;2023-03-23T13:59:07;1.90;;;0.98;;
36457;SDS011;22480;50.546;12.292;2023-03-23T14:01:41;1.15;;;0.70;;
36457;SDS011;22480;50.546;12.292;2023-03-23T14:04:16;2.05;;;1.08;;
36457;SDS011;22480;50.546;12.292;2023-03-23T14:06:47;3.42;;;1.90;;
36457;SDS011;22480;50.546;12.292;2023-03-23T14:09:23;3.00;;;0.90;;
36457;SDS011;22480;50.546;12.292;2023-03-23T14:12:04;3.22;;;0.82;;
36457;SDS011;22480;50.546;12.292;2023-03-23T14:14:50;1.70;;;0.70;;
36457;SDS011;22480;50.546;12.292;2023-03-23T14:17:25;0.70;;;0.60;;
36457;SDS011;22480;50.546;12.292;2023-03-23T14:19:53;1.70;;;0.90;;
36457;SDS011;22480;50.546;12.292;2023-03-23T14:22:32;0.70;;;0.60;;
36457;SDS011;22480;50.546;12.292;2023-03-23T14:25:18;1.27;;;0.95;;
36457;SDS011;22480;50.546;12.292;2023-03-23T14:27:46;1.10;;;1.00;;
36457;SDS011;22480;50.546;12.292;2023-03-23T14:30:13;1.58;;;1.10;;
36457;SDS011;22480;50.546;12.292;2023-03-23T14:32:50;1.20;;;1.00;;
36457;SDS011;22480;50.546;12.292;2023-03-23T14:35:19;1.98;;;1.23;;
36457;SDS011;22480;50.546;12.292;2023-03-23T14:37:50;1.25;;;1.00;;
36457;SDS011;22480;50.546;12.292;2023-03-23T14:40:16;0.95;;;0.80;;
36457;SDS011;22480;50.546;12.292;2023-03-23T14:42:43;0.73;;;0.73;;
36457;SDS011;22480;50.546;12.292;2023-03-23T14:45:10;1.15;;;0.80;;
36457;SDS011;22480;50.546;12.292;2023-03-23T14:47:53;1.38;;;0.70;;
36457;SDS011;22480;50.546;12.292;2023-03-23T14:53:10;1.15;;;0.95;;
36457;SDS011;22480;50.546;12.292;2023-03-23T14:55:51;2.90;;;1.20;;
36457;SDS011;22480;50.546;12.292;2023-03-23T14:58:19;2.80;;;0.88;;
36457;SDS011;22480;50.546;12.292;2023-03-23T15:00:48;2.88;;;0.70;;
36457;SDS011;22480;50.546;12.292;2023-03-23T15:03:24;1.67;;;0.98;;
36457;SDS011;22480;50.546;12.292;2023-03-23T15:05:56;2.00;;;0.60;;
36457;SDS011;22480;50.546;12.292;2023-03-23T15:08:27;2.88;;;1.00;;
36457;SDS011;22480;50.546;12.292;2023-03-23T15:13:26;1.05;;;0.77;;
36457;SDS011;22480;50.546;12.292;2023-03-23T15:15:52;2.15;;;1.30;;
36457;SDS011;22480;50.546;12.292;2023-03-23T15:18:34;1.92;;;0.80;;
36457;SDS011;22480;50.546;12.292;2023-03-23T15:21:08;1.77;;;1.33;;
36457;SDS011;22480;50.546;12.292;2023-03-23T15:23:47;2.22;;;1.90;;
36457;SDS011;22480;50.546;12.292;2023-03-23T15:26:22;2.30;;;1.38;;
36457;SDS011;22480;50.546;12.292;2023-03-23T15:29:04;1.95;;;1.50;;
36457;SDS011;22480;50.546;12.292;2023-03-23T15:31:32;7.88;;;3.97;;
36457;SDS011;22480;50.546;12.292;2023-03-23T15:34:03;2.38;;;2.17;;
36457;SDS011;22480;50.546;12.292;2023-03-23T15:36:34;3.75;;;2.00;;
36457;SDS011;22480;50.546;12.292;2023-03-23T15:39:00;4.28;;;2.03;;
36457;SDS011;22480;50.546;12.292;2023-03-23T15:41:27;5.40;;;2.58;;
36457;SDS011;22480;50.546;12.292;2023-03-23T15:43:58;2.25;;;1.65;;
36457;SDS011;22480;50.546;12.292;2023-03-23T15:46:38;2.72;;;1.70;;
36457;SDS011;22480;50.546;12.292;2023-03-23T15:49:14;3.70;;;1.98;;
36457;SDS011;22480;50.546;12.292;2023-03-23T15:51:41;1.58;;;1.30;;
36457;SDS011;22480;50.546;12.292;2023-03-23T15:54:08;3.55;;;1.13;;
36457;SDS011;22480;50.546;12.292;2023-03-23T15:56:38;3.60;;;1.27;;
36457;SDS011;22480;50.546;12.292;2023-03-23T15:59:04;1.30;;;1.20;;
36457;SDS011;22480;50.546;12.292;2023-03-23T16:01:30;3.33;;;1.40;;
36457;SDS011;22480;50.546;12.292;2023-03-23T16:03:57;3.33;;;1.33;;
36457;SDS011;22480;50.546;12.292;2023-03-23T16:06:30;1.55;;;1.30;;
36457;SDS011;22480;50.546;12.292;2023-03-23T16:08:58;1.75;;;1.45;;
36457;SDS011;22480;50.546;12.292;2023-03-23T16:11:25;1.92;;;1.75;;
36457;SDS011;22480;50.546;12.292;2023-03-23T16:13:52;6.40;;;2.83;;
36457;SDS011;22480;50.546;12.292;2023-03-23T16:16:20;2.83;;;1.73;;
36457;SDS011;22480;50.546;12.292;2023-03-23T16:18:52;4.22;;;1.90;;
36457;SDS011;22480;50.546;12.292;2023-03-23T16:21:18;3.05;;;2.20;;
36457;SDS011;22480;50.546;12.292;2023-03-23T16:23:43;7.13;;;2.72;;
36457;SDS011;22480;50.546;12.292;2023-03-23T16:26:10;4.43;;;1.88;;
36457;SDS011;22480;50.546;12.292;2023-03-23T16:28:37;3.05;;;1.88;;
36457;SDS011;22480;50.546;12.292;2023-03-23T16:31:03;2.15;;;1.70;;
36457;SDS011;22480;50.546;12.292;2023-03-23T16:33:29;2.95;;;1.58;;
36457;SDS011;22480;50.546;12.292;2023-03-23T16:35:54;3.00;;;2.03;;
36457;SDS011;22480;50.546;12.292;2023-03-23T16:38:22;1.25;;;1.13;;
36457;SDS011;22480;50.546;12.292;2023-03-23T16:40:48;2.40;;;1.77;;
36457;SDS011;22480;50.546;12.292;2023-03-23T16:43:14;3.45;;;2.50;;
36457;SDS011;22480;50.546;12.292;2023-03-23T16:45:40;3.70;;;2.28;;
36457;SDS011;22480;50.546;12.292;2023-03-23T16:48:07;5.22;;;2.60;;
36457;SDS011;22480;50.546;12.292;2023-03-23T16:50:34;3.25;;;2.33;;
36457;SDS011;22480;50.546;12.292;2023-03-23T16:53:01;2.85;;;1.63;;
36457;SDS011;22480;50.546;12.292;2023-03-23T16:55:27;3.92;;;1.80;;
36457;SDS011;22480;50.546;12.292;2023-03-23T16:57:55;3.45;;;1.42;;
36457;SDS011;22480;50.546;12.292;2023-03-23T17:00:23;1.73;;;1.50;;
36457;SDS011;22480;50.546;12.292;2023-03-23T17:02:51;4.35;;;1.77;;